createdAt,value
2019-03-03T00:02:06.517Z,99.90
2019-03-03T00:08:37.659Z,99.90
2019-03-03T00:12:01.904Z,99.90
2019-03-03T00:18:32.555Z,99.90
2019-03-03T00:21:57.181Z,99.90
2019-03-03T00:28:27.886Z,99.90
2019-03-03T00:31:35.918Z,99.90
2019-03-03T00:38:10.318Z,99.90
2019-03-03T00:41:34.580Z,99.90
2019-03-03T00:48:09.418Z,99.90
2019-03-03T00:54:43.669Z,99.90
2019-03-03T00:57:17.748Z,99.90
2019-03-03T01:00:02.036Z,99.90
2019-03-03T01:06:36.468Z,99.90
2019-03-03T01:09:16.595Z,99.90
2019-03-03T01:15:54.521Z,99.90
2019-03-03T01:22:35.871Z,99.90
2019-03-03T01:29:06.643Z,99.90
2019-03-03T01:35:37.551Z,99.90
2019-03-03T01:39:02.607Z,99.90
2019-03-03T01:45:33.441Z,99.90
2019-03-03T01:48:57.651Z,99.90
2019-03-03T01:55:28.533Z,99.90
2019-03-03T01:58:52.992Z,99.90
2019-03-03T02:05:24.070Z,99.90
2019-03-03T02:07:54.298Z,99.90
2019-03-03T02:14:24.797Z,99.90
2019-03-03T02:20:55.372Z,99.90
2019-03-03T02:27:26.111Z,99.90
2019-03-03T02:30:50.540Z,99.90
2019-03-03T02:37:20.978Z,99.90
2019-03-03T02:40:45.408Z,99.90
2019-03-03T02:47:16.403Z,99.90
2019-03-03T02:49:59.026Z,99.90
2019-03-03T02:56:28.711Z,99.90
2019-03-03T02:59:53.053Z,99.90
2019-03-03T03:06:24.420Z,99.90
2019-03-03T03:09:10.786Z,99.90
2019-03-03T03:15:58.421Z,99.90
2019-03-03T03:22:32.683Z,99.90
2019-03-03T03:29:20.147Z,99.90
2019-03-03T03:35:58.728Z,99.90
2019-03-03T03:42:39.544Z,99.90
2019-03-03T03:45:46.222Z,99.90
2019-03-03T03:52:33.489Z,99.90
2019-03-03T03:55:58.385Z,99.90
2019-03-03T04:02:33.439Z,99.90
2019-03-03T04:09:09.322Z,99.90
2019-03-03T04:15:44.538Z,99.90
2019-03-03T04:19:08.616Z,99.90
2019-03-03T04:25:52.922Z,99.90
2019-03-03T04:28:35.918Z,99.90
2019-03-03T04:32:00.649Z,99.90
2019-03-03T04:38:49.143Z,99.90
2019-03-03T04:45:24.290Z,99.90
2019-03-03T04:51:59.402Z,99.90
2019-03-03T04:55:23.608Z,99.90
2019-03-03T05:01:58.828Z,99.90
2019-03-03T05:08:46.394Z,99.90
2019-03-03T05:15:24.202Z,99.90
2019-03-03T05:18:48.578Z,99.90
2019-03-03T05:25:19.057Z,99.90
2019-03-03T05:28:43.444Z,99.90
2019-03-03T05:35:14.811Z,99.90
2019-03-03T05:41:45.320Z,99.90
2019-03-03T05:45:09.644Z,99.90
2019-03-03T05:51:39.988Z,99.90
2019-03-03T05:55:04.294Z,99.90
2019-03-03T06:01:35.150Z,99.90
2019-03-03T06:08:06.073Z,99.90
2019-03-03T06:10:36.063Z,99.90
2019-03-03T06:17:06.637Z,99.90
2019-03-03T06:20:31.132Z,99.90
2019-03-03T06:27:01.588Z,99.90
2019-03-03T06:30:36.301Z,99.90
2019-03-03T06:37:07.940Z,99.90
2019-03-03T06:40:32.410Z,99.90
2019-03-03T06:47:02.919Z,99.90
2019-03-03T06:53:33.342Z,99.90
2019-03-03T07:00:05.910Z,99.90
2019-03-03T07:06:37.327Z,99.90
2019-03-03T07:13:08.213Z,99.90
2019-03-03T07:19:38.978Z,99.90
2019-03-03T07:23:03.319Z,99.90
2019-03-03T07:29:35.336Z,99.90
2019-03-03T07:32:59.997Z,99.90
2019-03-03T07:39:30.727Z,99.90
2019-03-03T07:42:55.043Z,99.90
2019-03-03T07:49:28.721Z,99.90
2019-03-03T07:52:53.181Z,99.90
2019-03-03T07:59:23.793Z,99.90
2019-03-03T08:02:48.507Z,99.90
2019-03-03T08:09:19.070Z,99.90
2019-03-03T08:12:09.064Z,99.90
2019-03-03T08:14:39.052Z,99.90
2019-03-03T08:21:09.118Z,99.90
2019-03-03T08:27:42.033Z,99.90
2019-03-03T08:34:12.278Z,99.90
2019-03-03T08:40:42.124Z,99.90
2019-03-03T08:47:28.866Z,99.90
2019-03-03T08:54:17.869Z,99.40
2019-03-03T08:57:42.112Z,99.90
2019-03-03T09:04:14.704Z,98.70
2019-03-03T09:07:39.076Z,96.90
2019-03-03T09:14:14.307Z,96.10
2019-03-03T09:20:52.449Z,94.80
2019-03-03T09:24:16.529Z,96.50
2019-03-03T09:30:51.478Z,92.70
2019-03-03T09:37:23.727Z,91.90
2019-03-03T09:40:48.594Z,90.70
2019-03-03T09:47:21.193Z,90.90
2019-03-03T09:53:56.897Z,87.70
2019-03-03T09:57:24.306Z,82.10
2019-03-03T10:03:56.645Z,85.70
2019-03-03T10:10:31.891Z,81.00
2019-03-03T10:17:16.767Z,82.00
2019-03-03T10:24:01.574Z,79.40
2019-03-03T10:27:26.164Z,80.50
2019-03-03T10:34:07.084Z,78.70
2019-03-03T10:37:31.822Z,76.90
2019-03-03T10:44:04.289Z,78.00
2019-03-03T10:50:36.804Z,78.60
2019-03-03T10:57:25.958Z,76.10
2019-03-03T11:00:50.024Z,77.10
2019-03-03T11:07:22.294Z,77.20
2019-03-03T11:14:07.339Z,77.70
2019-03-03T11:20:42.965Z,76.80
2019-03-03T11:27:18.149Z,72.60
2019-03-03T11:30:26.227Z,73.40
2019-03-03T11:37:16.127Z,73.60
2019-03-03T11:40:40.750Z,76.50
2019-03-03T11:47:15.529Z,70.70
2019-03-03T11:50:03.476Z,69.30
2019-03-03T11:56:38.715Z,70.50
2019-03-03T12:03:16.936Z,70.90
2019-03-03T12:05:48.516Z,72.10
2019-03-03T12:09:13.469Z,73.50
2019-03-03T12:15:52.466Z,72.20
2019-03-03T12:22:27.168Z,68.50
2019-03-03T12:29:08.730Z,69.00
2019-03-03T12:32:33.110Z,68.20
2019-03-03T12:39:11.866Z,71.70
2019-03-03T12:45:53.173Z,67.90
2019-03-03T12:49:17.622Z,68.80
2019-03-03T12:55:49.821Z,66.10
2019-03-03T12:58:36.447Z,67.50
2019-03-03T13:05:14.826Z,67.60
2019-03-03T13:11:47.378Z,66.70
2019-03-03T13:18:22.405Z,65.80
2019-03-03T13:21:47.231Z,65.90
2019-03-03T13:24:31.108Z,67.50
2019-03-03T13:27:02.733Z,68.00
2019-03-03T13:33:34.905Z,66.40
2019-03-03T13:40:12.315Z,66.40
2019-03-03T13:43:36.959Z,69.00
2019-03-03T13:50:10.908Z,65.30
2019-03-03T13:56:41.914Z,65.50
2019-03-03T14:00:06.424Z,71.20
2019-03-03T14:06:37.056Z,76.00
2019-03-03T14:10:01.675Z,78.50
2019-03-03T14:16:32.769Z,83.00
2019-03-03T14:19:57.158Z,83.40
2019-03-03T14:26:28.062Z,87.70
2019-03-03T14:32:59.301Z,88.00
2019-03-03T14:36:23.901Z,88.20
2019-03-03T14:42:54.706Z,91.00
2019-03-03T14:46:19.361Z,91.30
2019-03-03T14:52:52.382Z,89.00
2019-03-03T14:59:24.719Z,91.80
2019-03-03T15:05:59.600Z,91.80
2019-03-03T15:12:30.097Z,89.10
2019-03-03T15:15:54.069Z,87.70
2019-03-03T15:22:24.621Z,87.30
2019-03-03T15:25:12.341Z,90.90
2019-03-03T15:27:42.383Z,90.20
2019-03-03T15:34:15.988Z,88.80
2019-03-03T15:40:46.172Z,80.20
2019-03-03T15:47:16.151Z,83.80
2019-03-03T15:50:40.215Z,84.80
2019-03-03T15:57:10.521Z,81.60
2019-03-03T16:00:34.556Z,72.00
2019-03-03T16:07:05.666Z,73.80
2019-03-03T16:10:30.157Z,73.50
2019-03-03T16:17:01.555Z,74.80
2019-03-03T16:23:32.329Z,81.10
2019-03-03T16:30:03.246Z,81.60
2019-03-03T16:36:34.353Z,80.90
2019-03-03T16:43:05.351Z,82.00
2019-03-03T16:46:29.629Z,80.40
2019-03-03T16:53:00.325Z,82.80
2019-03-03T16:59:31.021Z,83.00
2019-03-03T17:06:01.264Z,82.80
2019-03-03T17:12:31.745Z,81.70
2019-03-03T17:15:58.724Z,82.90
2019-03-03T17:22:30.250Z,82.80
2019-03-03T17:25:55.007Z,84.00
2019-03-03T17:32:25.881Z,83.60
2019-03-03T17:35:50.465Z,83.10
2019-03-03T17:42:21.064Z,81.10
2019-03-03T17:48:52.051Z,81.60
2019-03-03T17:52:16.409Z,83.00
2019-03-03T17:58:48.157Z,83.90
2019-03-03T18:05:19.726Z,85.20
2019-03-03T18:11:50.631Z,87.70
2019-03-03T18:18:21.358Z,88.50
2019-03-03T18:21:45.667Z,89.70
2019-03-03T18:28:16.710Z,87.50
2019-03-03T18:31:24.148Z,87.90
2019-03-03T18:33:53.846Z,87.70
2019-03-03T18:40:25.289Z,87.40
2019-03-03T18:46:55.685Z,86.40
2019-03-03T18:53:25.528Z,86.70
2019-03-03T18:59:56.021Z,89.20
2019-03-03T19:06:26.184Z,88.60
2019-03-03T19:12:56.797Z,87.70
2019-03-03T19:16:21.230Z,88.50
2019-03-03T19:22:52.260Z,89.30
2019-03-03T19:29:23.043Z,90.60
2019-03-03T19:32:04.233Z,89.90
2019-03-03T19:34:34.261Z,89.30
2019-03-03T19:41:04.616Z,90.00
2019-03-03T19:47:34.652Z,90.20
2019-03-03T19:54:05.322Z,90.40
2019-03-03T20:00:42.504Z,90.80
2019-03-03T20:07:12.970Z,89.90
2019-03-03T20:13:43.653Z,90.70
2019-03-03T20:17:07.795Z,90.90
2019-03-03T20:23:38.233Z,91.00
2019-03-03T20:27:02.547Z,90.70
2019-03-03T20:33:33.013Z,90.20
2019-03-03T20:40:03.667Z,90.10
2019-03-03T20:43:29.111Z,90.60
2019-03-03T20:49:59.524Z,91.00
2019-03-03T20:53:23.768Z,90.10
2019-03-03T20:59:54.611Z,90.10
2019-03-03T21:03:18.894Z,89.90
2019-03-03T21:09:49.543Z,90.90
2019-03-03T21:13:13.779Z,89.50
2019-03-03T21:19:44.371Z,90.40
2019-03-03T21:22:43.465Z,90.20
2019-03-03T21:29:13.418Z,90.70
2019-03-03T21:32:37.473Z,89.70
2019-03-03T21:35:10.047Z,88.30
2019-03-03T21:41:40.085Z,89.70
2019-03-03T21:45:04.313Z,87.10
2019-03-03T21:51:34.172Z,88.10
2019-03-03T21:58:04.864Z,85.60
2019-03-03T22:01:28.995Z,83.50
2019-03-03T22:07:59.781Z,87.40
2019-03-03T22:11:24.156Z,85.30
2019-03-03T22:17:55.120Z,86.90
2019-03-03T22:24:25.759Z,88.30
2019-03-03T22:27:50.082Z,88.00
2019-03-03T22:34:20.681Z,89.80
2019-03-03T22:36:50.569Z,89.30
2019-03-03T22:43:21.425Z,90.80
2019-03-03T22:49:52.719Z,92.00
2019-03-03T22:53:17.215Z,91.00
2019-03-03T22:59:47.853Z,90.80
2019-03-03T23:06:24.414Z,90.60
2019-03-03T23:09:49.194Z,92.20
2019-03-03T23:16:38.198Z,91.70
2019-03-03T23:23:21.236Z,91.40
2019-03-03T23:26:45.635Z,92.40
2019-03-03T23:33:17.672Z,92.00
2019-03-03T23:39:48.722Z,93.20
2019-03-03T23:46:19.072Z,95.00
2019-03-03T23:52:50.330Z,94.00
2019-03-03T23:59:20.955Z,94.50
